Aeroporto :
LOGIN :

Iscrizione | Disclaimer

   EN    FR    IT 

 










Sommario :    VFR   VFR Marginale   IFR   IFR Intensivo   IFR Molto Intensivo
Visibilità : 
Base nubi : 
>= 8 km
>= 3000ft
5 / 8 km
1000 / 3000 ft
1500m / 5 km
500 / 1000 ft
800 / 1500m
200 / 500 ft
< 800m
< 200 ft
Simboli :   Temporali  Nebbia  Neve Forte  Precipitazioni Forti  Vento > 20 kt
SIGMETs :   Varie  Temporali  Ghiacco  Turbolenza  Onda orograficha  Ceneri Vulcaniche






- Altitudine del aeroporto : 17 ft
- Codice IATA : CPH


EKCH - København - Kastrup (Copenhagen)

ULTIMO METAR :
  • 180620Z AUTO 25017KT 9999 FEW023/// FEW041/// 06/02 Q1006 TEMPO 25015G25KT FEW020CB

METARs OBSOLETI :
  • 180550Z AUTO 23016KT 9999 BKN023/// 06/03 Q1006 TEMPO FEW020TCU
  • 180520Z AUTO 24014KT 9999 OVC026/// 07/04 Q1006 TEMPO FEW020TCU
  • 180450Z AUTO 23015KT 9999 BKN028/// 07/04 Q1006 TEMPO BKN014 FEW020TCU
  • 180420Z AUTO 23015KT 9999 BKN028/// 06/04 Q1006 TEMPO BKN014 FEW020TCU
  • 180350Z AUTO 23015KT 9999 BKN023/// 06/05 Q1005 TEMPO BKN014 FEW020TCU

TAF TAF EKCH
Valido dal 18 a 06 ore il 19 a 06 ore UTC


180520Z 1806/1906 24018KT 9999 BKN020
TEMPO 1807/1810 SHRA BKN020CB
BECMG 1807/1810 25018G32KT
TEMPO 1810/1820 4000 SHRAGS BKN012 BKN020CB
TEMPO 1820/1824 BKN010



MetMap, La meteo Aeronautica in un colpo d'occhio ! - Copyright ORBIFLY Dicembre 2007 - Disclaimer

ORBIFLY MET'MAP TEAM :

Programmazione e sviluppo : Alexandra Zaïnal
Concezione : Baudouin d'Aumeries
Aiuto per la programmazione : Marc-Olivier Méhu
Supporto tecnico e logistico : Manuel Goepfert
Aiuto per la traduzione : Arnaldo La Scala

Contatto : metmap@orbifly.com




FONTI E CREDITI :

   NOAA